Data for 03/21/2009

Time Sea-Level Adjusted Pressure Absolute Pressure Temperature Relative Humidity Dew Point   
(mb) (inHg) (mb) (inHg) (C) (F) (%) (C) (F)
00:05 1014 29.94 843 24.89 6.4 43.5 49 -3.5 25.8
00:10 1014 29.94 843 24.89 6.3 43.3 49 -3.7 25.4
00:15 1014 29.94 843 24.89 6.3 43.4 49 -3.7 25.4
00:20 1014 29.94 843 24.89 6.2 43.2 49 -3.6 25.6
00:25 1014 29.94 843 24.89 6.1 43 49 -3.7 25.4
00:30 1014 29.94 843 24.89 6.1 42.9 49 -3.7 25.3
00:35 1014 29.94 843 24.89 6.2 43.1 48 -3.9 24.9
00:40 1014 29.94 843 24.89 6.3 43.4 48 -4 24.8
00:45 1014 29.94 843 24.89 6.5 43.6 47 -4 24.8
00:50 1014 29.94 843 24.89 6.4 43.6 47 -4.1 24.7
00:55 1014 29.94 843 24.89 6.4 43.5 47 -4.1 24.6
01:00 1014 29.94 843 24.89 6.2 43.2 48 -4 24.8
01:05 1014 29.94 843 24.89 6 42.9 48 -4.1 24.6
01:10 1014 29.94 843 24.89 6 42.8 48 -4.3 24.3
01:15 1014 29.94 843 24.89 5.9 42.7 48 -4.2 24.4
01:20 1014 29.94 843 24.89 5.8 42.4 49 -4.2 24.5
01:25 1014 29.94 843 24.89 5.8 42.4 48 -4.3 24.3
01:30 1014 29.94 843 24.89 5.8 42.4 48 -4.2 24.4
01:35 1014 29.94 843 24.89 5.8 42.4 48 -4.4 24.1
01:40 1014 29.94 843 24.89 5.8 42.5 48 -4.2 24.4
01:45 1014 29.94 843 24.89 5.9 42.6 47 -4.5 24
01:50 1014 29.94 843 24.89 6 42.8 47 -4.5 23.8
01:55 1014 29.94 843 24.89 6.1 43 47 -4.5 23.9
02:00 1014 29.94 843 24.89 6.1 43 46 -4.5 23.8
02:05 1014 29.94 843 24.89 6.1 42.9 47 -4.5 23.9
02:10 1014 29.94 843 24.89 6 42.7 46 -4.7 23.5
02:15 1014 29.94 843 24.89 6.1 42.9 46 -4.7 23.6
02:20 1014 29.94 843 24.89 6.1 43 46 -4.7 23.5
02:25 1014 29.94 843 24.89 6 42.8 46 -4.7 23.6
02:30 1014 29.94 843 24.89 6.1 42.9 45 -4.9 23.2
02:35 1014 29.94 843 24.89 6.2 43.1 45 -4.8 23.4
02:40 1014 29.94 843 24.89 6 42.9 46 -4.7 23.5
02:45 1014 29.94 843 24.89 6.1 43.1 45 -4.8 23.3
02:50 1014 29.94 843 24.89 6.2 43.1 45 -4.9 23.2
02:55 1014 29.94 843 24.89 6.2 43.2 44 -5 23
03:00 1014 29.94 843 24.89 6.2 43.2 44 -5.1 22.8
03:05 1014 29.94 843 24.89 6.3 43.4 45 -4.9 23.3
03:10 1014 29.94 843 24.89 6 42.8 46 -4.6 23.7
03:15 1014 29.94 843 24.89 5.6 42.1 47 -4.8 23.3
03:20 1014 29.94 843 24.89 5.6 42.1 47 -4.8 23.3
03:25 1014 29.94 843 24.89 5.6 42 46 -5.1 22.9
03:30 1013 29.91 843 24.89 6 42.8 45 -5.1 22.9
03:35 1013 29.91 843 24.89 5.9 42.6 46 -4.9 23.2
03:40 1013 29.91 843 24.89 5.7 42.3 47 -4.7 23.5
03:45 1014 29.94 843 24.89 5.5 42 47 -4.9 23.1
03:50 1013 29.91 843 24.89 5.8 42.4 44 -5.5 22.1
03:55 1013 29.91 843 24.89 6.2 43.1 44 -5.1 22.9
04:00 1013 29.91 843 24.89 6.2 43.2 43 -5.3 22.5
04:05 1013 29.91 842 24.86 6.2 43.2 44 -5 23
04:10 1013 29.91 842 24.86 5.9 42.7 45 -4.9 23.1
04:15 1013 29.91 842 24.86 5.8 42.4 46 -4.9 23.2
04:20 1013 29.91 842 24.86 5.6 42.2 46 -5 23
04:25 1013 29.91 842 24.86 5.6 42 47 -4.7 23.5
04:30 1013 29.91 842 24.86 5.5 41.9 47 -4.9 23.3
04:35 1013 29.91 842 24.86 5.5 41.9 48 -4.7 23.5
04:40 1013 29.91 842 24.86 5.6 42.1 47 -4.7 23.5
04:45 1013 29.91 842 24.86 5.8 42.5 47 -4.7 23.6
04:50 1013 29.91 842 24.86 5.9 42.6 46 -4.8 23.4
04:55 1013 29.91 842 24.86 6 42.8 45 -4.9 23.2
05:00 1013 29.91 842 24.86 6.2 43.1 45 -4.7 23.5
05:05 1013 29.91 842 24.86 6.1 43 46 -4.8 23.4
05:10 1013 29.91 842 24.86 6.2 43.1 45 -4.8 23.4
05:15 1013 29.91 842 24.86 6.1 42.9 45 -4.9 23.2
05:20 1013 29.91 842 24.86 6.3 43.3 45 -4.7 23.6
05:25 1013 29.91 842 24.86 6 42.8 47 -4.4 24.1
05:30 1012 29.88 842 24.86 5.8 42.4 47 -4.6 23.8
05:35 1012 29.88 842 24.86 5.8 42.5 47 -4.5 23.8
05:40 1012 29.88 842 24.86 6.1 42.9 46 -4.6 23.7
05:45 1012 29.88 842 24.86 6.4 43.5 46 -4.4 24
05:50 1012 29.88 842 24.86 6.7 44 45 -4.5 24
05:55 1012 29.88 842 24.86 6.7 44.1 45 -4.5 24
06:00 1013 29.91 842 24.86 6.7 44.1 44 -4.7 23.6
06:05 1013 29.91 842 24.86 6.6 43.9 48 -3.6 25.6
06:10 1013 29.91 843 24.89 7.2 44.9 43 -4.4 24
06:15 1014 29.94 843 24.89 7.5 45.5 49 -2.6 27.3
06:20 1014 29.94 843 24.89 6.6 44 47 -3.9 25
06:25 1014 29.94 843 24.89 6.9 44.5 49 -2.9 26.7
06:30 1014 29.94 843 24.89 6.3 43.4 52 -2.8 27
06:35 1014 29.94 843 24.89 5.9 42.6 55 -2.4 27.6
06:40 1014 29.94 843 24.89 5.8 42.5 54 -2.7 27.1
06:45 1014 29.94 843 24.89 6.4 43.4 55 -2 28.5
06:50 1014 29.94 843 24.89 6.9 44.5 57 -1.1 30.1
06:55 1014 29.94 843 24.89 7.4 45.2 60 0.1 32.2
07:00 1014 29.94 843 24.89 8 46.4 58 0.2 32.4
07:05 1014 29.94 843 24.89 7.2 44.9 60 -0 31.9
07:10 1014 29.94 843 24.89 6.2 43.2 63 -0.3 31.5
07:15 1014 29.94 843 24.89 6.8 44.3 60 -0.4 31.2
07:20 1014 29.94 843 24.89 6.6 43.8 60 -0.6 30.9
07:25 1014 29.94 844 24.92 6.6 43.8 65 0.4 32.8
07:30 1014 29.94 844 24.92 6.7 44 65 0.7 33.2
07:35 1014 29.94 844 24.92 6.9 44.5 64 0.6 33.1
07:40 1014 29.94 844 24.92 7.2 45 65 1.1 33.9
07:45 1014 29.94 844 24.92 7.5 45.4 64 1.2 34.2
07:50 1014 29.94 843 24.89 7.3 45.2 66 1.4 34.4
07:55 1014 29.94 843 24.89 7.1 44.8 66 1.3 34.3
08:00 1014 29.94 843 24.89 7.4 45.2 65 1.3 34.4
08:05 1014 29.94 843 24.89 7.2 44.9 66 1.3 34.4
08:10 1014 29.94 843 24.89 6.6 43.9 64 0.3 32.5
08:15 1014 29.94 843 24.89 6 42.8 63 -0.4 31.3
08:20 1014 29.94 843 24.89 5.7 42.2 63 -0.9 30.3
08:25 1013 29.91 842 24.86 5.5 42 61 -1.3 29.7
08:30 1013 29.91 842 24.86 5.9 42.7 62 -0.9 30.4
08:35 1013 29.91 842 24.86 6.4 43.5 61 -0.5 31.1
08:40 1013 29.91 842 24.86 6.6 43.9 63 0 32
08:45 1013 29.91 842 24.86 6.7 44 63 0.2 32.3
08:50 1013 29.91 842 24.86 6.4 43.5 63 -0.2 31.7
08:55 1013 29.91 842 24.86 6.5 43.7 62 -0.2 31.7
09:00 1013 29.91 842 24.86 6.9 44.5 61 -0.1 31.8
09:05 1013 29.91 842 24.86 7.2 44.9 61 0.1 32.2
09:10 1013 29.91 842 24.86 7.1 44.8 61 0.2 32.3
09:15 1013 29.91 842 24.86 7.2 45 61 0.3 32.5
09:20 1013 29.91 842 24.86 7.3 45.2 60 0.1 32.2
09:25 1013 29.91 842 24.86 7.4 45.2 59 -0.1 31.9
09:30 1013 29.91 842 24.86 7.6 45.6 55 -0.9 30.4
09:35 1013 29.91 842 24.86 7.8 46.1 52 -1.5 29.3
09:40 1013 29.91 842 24.86 8 46.4 50 -1.7 28.9
09:45 1013 29.91 842 24.86 8.2 46.7 49 -1.9 28.6
09:50 1013 29.91 842 24.86 8.1 46.7 50 -1.5 29.2
09:55 1013 29.91 842 24.86 8.1 46.5 52 -1.1 30
10:00 1013 29.91 842 24.86 8.2 46.8 53 -0.8 30.5
10:05 1013 29.91 842 24.86 8.4 47.1 53 -0.7 30.7
10:10 1013 29.91 842 24.86 8.5 47.3 51 -0.9 30.3
10:15 1013 29.91 842 24.86 8.6 47.5 52 -0.8 30.6
10:20 1013 29.91 842 24.86 8.9 48 51 -0.6 30.9
10:25 1013 29.91 842 24.86 9.2 48.6 52 -0.1 31.8
10:30 1013 29.91 842 24.86 9.5 49.1 52 0.1 32.1
10:35 1013 29.91 842 24.86 9.2 48.5 61 2 35.6
10:40 1013 29.91 842 24.86 8.2 46.7 64 1.7 35.1
10:45 1013 29.91 842 24.86 7.9 46.2 65 1.8 35.3
10:50 1013 29.91 842 24.86 8.3 46.9 64 1.8 35.2
10:55 1013 29.91 842 24.86 9 48.1 61 2 35.5
11:00 1013 29.91 842 24.86 8.9 48 64 2.6 36.6
11:05 1013 29.91 842 24.86 9 48.2 62 2 35.6
11:10 1013 29.91 842 24.86 9.7 49.5 58 1.8 35.3
11:15 1013 29.91 842 24.86 10.2 50.3 56 1.8 35.3
11:20 1013 29.91 842 24.86 10.1 50.1 56 1.8 35.2
11:25 1013 29.91 842 24.86 10.6 51.1 55 1.9 35.5
11:30 1013 29.91 842 24.86 11.4 52.5 51 1.7 35
11:35 1013 29.91 842 24.86 11.3 52.3 54 2.4 36.3
11:40 1013 29.91 842 24.86 11.9 53.3 51 2 35.6
11:45 1013 29.91 842 24.86 12 53.7 52 2.5 36.4
11:50 1013 29.91 843 24.89 11.8 53.2 51 2.1 35.8
11:55 1013 29.91 843 24.89 11.8 53.2 52 2.2 36
12:00 1014 29.94 843 24.89 11.4 52.5 55 2.8 37.1
12:05 1014 29.94 843 24.89 10.7 51.2 59 3 37.5
12:10 1014 29.94 843 24.89 10.1 50.2 58 2.2 35.9
12:15 1014 29.94 843 24.89 10.6 51.1 55 1.9 35.4
12:20 1014 29.94 843 24.89 11.3 52.3 54 2.3 36.1
12:25 1013 29.91 843 24.89 11.4 52.5 52 2.1 35.7
12:30 1013 29.91 842 24.86 12 53.6 50 1.9 35.4
12:35 1013 29.91 842 24.86 12.4 54.2 51 2.5 36.5
12:40 1013 29.91 842 24.86 11.5 52.7 51 1.7 35
12:45 1013 29.91 842 24.86 11.7 53.1 50 1.7 35.1
12:50 1013 29.91 842 24.86 11.1 51.9 53 1.8 35.3
12:55 1013 29.91 842 24.86 11.3 52.4 54 2.3 36.1
13:00 1012 29.88 842 24.86 12.3 54.1 48 1.7 35
13:05 1012 29.88 842 24.86 12.9 55.1 44 1.1 33.9
13:10 1012 29.88 841 24.83 13.1 55.5 45 1.3 34.4
13:15 1012 29.88 841 24.83 13.3 55.9 42 0.8 33.5
13:20 1012 29.88 841 24.83 13.4 56 43 1.1 34
13:25 1012 29.88 841 24.83 13.9 56.9 42 1.1 34
13:30 1012 29.88 841 24.83 13.5 56.2 44 1.6 34.8
13:35 1012 29.88 841 24.83 14.2 57.5 39 0.5 32.8
13:40 1012 29.88 841 24.83 14.6 58.4 39 0.8 33.4
13:45 1012 29.88 841 24.83 15.2 59.3 38 0.9 33.7
13:50 1012 29.88 841 24.83 15.3 59.5 37 0.6 33.1
13:55 1011 29.85 841 24.83 15.8 60.5 34 0.1 32.1
14:00 1011 29.85 841 24.83 16 60.8 34 0.3 32.6
14:05 1011 29.85 840 24.81 16 60.7 34 0.1 32.1
14:10 1011 29.85 840 24.81 14.6 58.3 37 0.2 32.3
14:15 1011 29.85 840 24.81 14.1 57.3 37 -0.3 31.5
14:20 1011 29.85 840 24.81 13.8 56.9 38 -0.3 31.4
14:25 1011 29.85 840 24.81 13.9 57.1 37 -0.3 31.5
14:30 1011 29.85 840 24.81 14.2 57.6 33 -1.6 29.2
14:35 1011 29.85 840 24.81 14.3 57.8 34 -1.3 29.6
14:40 1011 29.85 840 24.81 14.4 57.8 34 -1.3 29.7
14:45 1011 29.85 840 24.81 14.6 58.2 34 -1.1 30
14:50 1010 29.83 840 24.81 14.6 58.3 35 -0.6 31
14:55 1010 29.83 840 24.81 14.8 58.6 34 -0.8 30.6
15:00 1010 29.83 839 24.78 14.6 58.2 34 -0.9 30.4
15:05 1010 29.83 839 24.78 14.5 58.1 35 -0.8 30.6
15:10 1010 29.83 839 24.78 14 57.3 36 -0.8 30.6
15:15 1010 29.83 839 24.78 14.5 58.1 34 -1.2 29.9
15:20 1010 29.83 839 24.78 15.4 59.6 32 -1.1 30
15:25 1010 29.83 839 24.78 15.4 59.7 33 -0.6 31
15:30 1010 29.83 839 24.78 15.3 59.5 33 -0.7 30.8
15:35 1010 29.83 839 24.78 15.6 60.1 32 -1.1 30
15:40 1010 29.83 839 24.78 15.1 59.1 34 -0.6 31
15:45 1010 29.83 839 24.78 15.8 60.4 33 -0.5 31.1
15:50 1009 29.8 839 24.78 15.8 60.4 33 -0.5 31.1
15:55 1009 29.8 839 24.78 15.6 60.2 33 -0.5 31.1
16:00 1009 29.8 839 24.78 15.7 60.2 33 -0.6 30.9
16:05 1009 29.8 839 24.78 15.4 59.6 34 -0.3 31.5
16:10 1009 29.8 838 24.75 15.3 59.5 35 0.1 32.3
16:15 1009 29.8 838 24.75 15 59.1 37 0.4 32.8
16:20 1009 29.8 839 24.78 14.8 58.6 38 0.6 33
16:25 1009 29.8 839 24.78 14.9 58.9 37 0.5 32.9
16:30 1009 29.8 838 24.75 15.2 59.3 36 0.5 32.8
16:35 1009 29.8 838 24.75 14.8 58.6 38 0.8 33.4
16:40 1009 29.8 838 24.75 14.6 58.3 38 0.5 32.8
16:45 1009 29.8 838 24.75 14.7 58.4 38 0.8 33.4
16:50 1009 29.8 838 24.75 14.7 58.5 38 0.6 33.1
16:55 1009 29.8 838 24.75 14.8 58.7 38 0.7 33.2
17:00 1009 29.8 838 24.75 15.1 59.2 37 0.5 33
17:05 1009 29.8 838 24.75 15.8 60.4 35 0.4 32.8
17:10 1009 29.8 838 24.75 15.3 59.6 36 0.3 32.6
17:15 1009 29.8 838 24.75 15 59 34 -0.5 31.1
17:20 1009 29.8 838 24.75 15.3 59.6 36 0.4 32.7
17:25 1009 29.8 838 24.75 15.2 59.4 35 -0.1 31.8
17:30 1009 29.8 838 24.75 15.8 60.4 35 0.4 32.8
17:35 1009 29.8 838 24.75 15.8 60.4 35 0.2 32.4
17:40 1009 29.8 838 24.75 14.6 58.2 38 0.6 33.1
17:45 1009 29.8 838 24.75 14.9 58.9 36 0.1 32.1
17:50 1009 29.8 838 24.75 14.6 58.3 39 1 33.8
17:55 1009 29.8 838 24.75 14 57.3 40 0.6 33.1
18:00 1008 29.77 838 24.75 14.3 57.7 39 0.6 33.1
18:05 1008 29.77 838 24.75 14.4 58 39 0.6 33.2
18:10 1008 29.77 838 24.75 14.4 57.9 39 0.6 33.1
18:15 1008 29.77 838 24.75 14.3 57.7 39 0.7 33.2
18:20 1008 29.77 837 24.72 14 57.3 40 0.9 33.5
18:25 1008 29.77 837 24.72 14 57.3 41 1.2 34.1
18:30 1008 29.77 837 24.72 13.5 56.3 44 1.7 35
18:35 1008 29.77 837 24.72 13.4 56.2 43 1.3 34.4
18:40 1008 29.77 837 24.72 13.2 55.8 44 1.2 34.2
18:45 1008 29.77 837 24.72 13 55.3 45 1.4 34.6
18:50 1008 29.77 837 24.72 13 55.4 45 1.5 34.7
18:55 1008 29.77 837 24.72 13.1 55.5 45 1.6 34.9
19:00 1008 29.77 837 24.72 12.9 55.2 48 2.3 36.1
19:05 1008 29.77 837 24.72 12.5 54.4 52 3 37.4
19:10 1008 29.77 837 24.72 11.9 53.5 52 2.5 36.5
19:15 1008 29.77 837 24.72 11.7 53 56 3.1 37.6
19:20 1008 29.77 837 24.72 11.2 52.2 54 2.2 36
19:25 1008 29.77 837 24.72 11.2 52.2 54 2.2 36
19:30 1008 29.77 837 24.72 11.2 52.1 55 2.4 36.3
19:35 1008 29.77 837 24.72 11.1 51.9 55 2.4 36.2
19:40 1008 29.77 837 24.72 10.8 51.4 55 2.2 36
19:45 1008 29.77 837 24.72 10.6 51.1 56 2.1 35.9
19:50 1008 29.77 837 24.72 10.4 50.7 57 2.2 35.9
19:55 1009 29.8 838 24.75 9.9 49.9 58 2 35.6
20:00 1009 29.8 838 24.75 10.2 50.3 56 1.8 35.2
20:05 1009 29.8 838 24.75 10.1 50.2 56 1.9 35.4
20:10 1009 29.8 838 24.75 10 49.9 54 1.1 34
20:15 1009 29.8 838 24.75 9.7 49.4 55 1 33.8
20:20 1009 29.8 838 24.75 9.4 48.9 54 0.5 32.9
20:25 1009 29.8 838 24.75 9.2 48.5 58 1.4 34.5
20:30 1009 29.8 838 24.75 8.6 47.5 59 1.2 34.1
20:35 1009 29.8 838 24.75 8.9 48 60 1.5 34.7
20:40 1008 29.77 838 24.75 9.3 48.7 56 0.9 33.7
20:45 1008 29.77 838 24.75 9.5 49.1 53 0.4 32.8
20:50 1008 29.77 838 24.75 10.2 50.3 50 0.2 32.4
20:55 1008 29.77 838 24.75 10.3 50.5 50 0.4 32.7
21:00 1008 29.77 837 24.72 10.1 50.1 53 0.9 33.6
21:05 1008 29.77 837 24.72 9.7 49.5 56 1.5 34.7
21:10 1008 29.77 837 24.72 9.3 48.8 58 1.5 34.7
21:15 1008 29.77 837 24.72 9.3 48.8 56 0.9 33.7
21:20 1008 29.77 837 24.72 9.8 49.6 48 -0.8 30.6
21:25 1008 29.77 837 24.72 10.4 50.7 50 0.4 32.7
21:30 1008 29.77 837 24.72 10.1 50.3 50 0.3 32.6
21:35 1008 29.77 837 24.72 10.1 50.3 49 -0 31.9
21:40 1008 29.77 837 24.72 10.2 50.4 48 -0.2 31.7
21:45 1008 29.77 837 24.72 10.3 50.5 50 0.5 32.9
21:50 1007 29.74 837 24.72 10.2 50.3 52 0.9 33.6
21:55 1008 29.77 837 24.72 9.9 49.9 52 0.5 33
22:00 1008 29.77 837 24.72 9.9 49.8 50 0 32
22:05 1008 29.77 837 24.72 9.8 49.7 51 0.3 32.5
22:10 1008 29.77 837 24.72 9.5 49.1 55 1 33.8
22:15 1007 29.74 837 24.72 8.7 47.6 59 1 33.8
22:20 1007 29.74 837 24.72 8.3 46.9 57 0.3 32.5
22:25 1007 29.74 837 24.72 8.5 47.3 57 0.5 32.9
22:30 1007 29.74 837 24.72 8.1 46.5 58 0.4 32.8
22:35 1007 29.74 837 24.72 7.9 46.1 58 0.2 32.4
22:40 1007 29.74 837 24.72 8 46.4 57 -0.1 31.9
22:45 1007 29.74 837 24.72 8.1 46.6 58 0.3 32.6
22:50 1008 29.77 837 24.72 7.9 46.2 59 0.3 32.5
22:55 1008 29.77 837 24.72 7.8 46 60 0.5 32.9
23:00 1008 29.77 837 24.72 7.9 46.3 58 0.1 32.2
23:05 1008 29.77 837 24.72 8.3 46.9 56 0 32.1
23:10 1008 29.77 837 24.72 8.4 47.1 58 0.7 33.3
23:15 1008 29.77 838 24.75 8.1 46.6 60 1 33.7
23:20 1009 29.8 838 24.75 8.1 46.5 64 1.7 35.1
23:25 1008 29.77 838 24.75 7.5 45.6 66 1.7 35.1
23:30 1008 29.77 837 24.72 7.6 45.7 66 1.7 35
23:35 1008 29.77 837 24.72 7.6 45.6 67 1.9 35.4
23:40 1008 29.77 837 24.72 7.5 45.4 67 1.8 35.2
23:45 1008 29.77 837 24.72 7.4 45.3 68 1.8 35.3
23:50 1008 29.77 837 24.72 7.3 45.1 67 1.6 34.9
23:55 1008 29.77 837 24.72 7.1 44.9 66 1.3 34.4
24:00 1007 29.74 837 24.72 7.2 45 67 1.5 34.6